Data for 03/09/2014

Time Sea-Level Adjusted Pressure Absolute Pressure Temperature Relative Humidity Dew Point   
(mb) (inHg) (mb) (inHg) (C) (F) (%) (C) (F)
00:05 1018 30.06 847 25.01 6.9 44.5 36 -7 19.5
00:10 1018 30.06 847 25.01 7.2 45 33 -8 17.5
00:15 1018 30.06 847 25.01 7.6 45.8 32 -7.9 17.7
00:20 1018 30.06 847 25.01 7.8 46 33 -7.6 18.4
00:25 1018 30.06 847 25.01 7.5 45.6 34 -7.3 18.9
00:30 1018 30.06 847 25.01 7.5 45.4 32 -8.1 17.3
00:35 1018 30.06 847 25.01 7.8 46.1 32 -7.9 17.8
00:40 1018 30.06 847 25.01 7.9 46.2 29 -8.9 15.9
00:45 1018 30.06 847 25.01 8.1 46.5 31 -8 17.5
00:50 1018 30.06 847 25.01 7.7 45.9 33 -7.6 18.3
00:55 1018 30.06 847 25.01 7.7 45.9 30 -8.6 16.5
01:00 1018 30.06 847 25.01 8 46.5 32 -7.6 18.3
01:05 1018 30.06 847 25.01 7.6 45.8 32 -8.1 17.5
01:10 1018 30.06 847 25.01 7.6 45.6 34 -7.3 18.9
01:15 1018 30.06 847 25.01 7.3 45.1 32 -8.5 16.7
01:20 1018 30.06 847 25.01 7.7 45.8 32 -8.1 17.5
01:25 1018 30.06 847 25.01 7.7 45.9 33 -7.6 18.4
01:30 1018 30.06 847 25.01 7.4 45.2 35 -7 19.5
01:35 1018 30.06 847 25.01 7 44.6 35 -7.5 18.5
01:40 1018 30.06 847 25.01 7.2 44.9 33 -7.9 17.8
01:45 1018 30.06 847 25.01 7.5 45.6 33 -7.8 17.9
01:50 1018 30.06 847 25.01 7.8 46 31 -8.2 17.3
01:55 1018 30.06 847 25.01 7.9 46.3 31 -8.1 17.5
03:00 1018 30.06 847 25.01 7.9 46.2 30 -8.8 16.2
03:05 1018 30.06 847 25.01 8.3 46.9 29 -8.6 16.5
03:10 1018 30.06 847 25.01 8.4 47.1 30 -8.3 17.1
03:15 1018 30.06 847 25.01 8.3 47 30 -8.1 17.3
03:20 1018 30.06 847 25.01 8.3 46.9 28 -9.1 15.6
03:25 1017 30.03 847 25.01 8.7 47.7 29 -8.5 16.7
03:30 1017 30.03 847 25.01 8.5 47.2 29 -8.5 16.7
03:35 1017 30.03 847 25.01 8.5 47.2 28 -8.8 16.1
03:40 1017 30.03 847 25.01 8.6 47.5 29 -8.6 16.5
03:45 1017 30.03 847 25.01 8.4 47.2 30 -8.2 17.2
03:50 1017 30.03 846 24.98 8.1 46.6 30 -8.3 17.1
03:55 1017 30.03 846 24.98 8.1 46.7 28 -9.1 15.6
04:00 1017 30.03 846 24.98 8.7 47.6 26 -9.6 14.8
04:05 1017 30.03 846 24.98 9.2 48.5 27 -9 15.8
04:10 1017 30.03 846 24.98 9 48.3 28 -8.4 17
04:15 1017 30.03 846 24.98 8.8 47.8 28 -8.8 16.2
04:20 1017 30.03 846 24.98 8.6 47.5 29 -8.4 16.9
04:25 1017 30.03 846 24.98 8.5 47.2 27 -9.4 15.1
04:30 1017 30.03 846 24.98 9.1 48.4 26 -9.3 15.3
04:35 1017 30.03 846 24.98 9 48.3 29 -8.2 17.3
04:40 1016 30 846 24.98 8.4 47.1 29 -8.8 16.1
04:45 1016 30 845 24.95 8.3 47 25 -10.4 13.2
04:50 1016 30 845 24.95 8.9 48 25 -10.3 13.5
04:55 1016 30 845 24.95 9.5 49.2 23 -10.7 12.8
05:00 1016 30 845 24.95 9.8 49.7 23 -10.1 13.8
05:05 1016 30 845 24.95 10 50 18 -13.2 8.2
05:10 1016 30 845 24.95 11.1 52 18 -12.6 9.3
05:15 1016 30 845 24.95 11.1 52.1 18 -12.5 9.5
05:20 1016 30 845 24.95 11.3 52.3 15 -14.5 5.9
05:25 1015 29.97 845 24.95 11.6 52.9 15 -14.5 5.8
05:30 1015 29.97 845 24.95 11.8 53.3 17 -12.8 9
05:35 1015 29.97 844 24.92 11.7 53.1 16 -13.7 7.3
05:40 1015 29.97 844 24.92 11.7 53.1 16 -13.1 8.5
05:45 1015 29.97 844 24.92 11.5 52.7 18 -12.3 9.9
05:50 1015 29.97 845 24.95 11.5 52.6 17 -12.8 8.9
05:55 1015 29.97 845 24.95 11.4 52.4 17 -12.8 8.9
06:00 1015 29.97 845 24.95 11.4 52.4 18 -12.5 9.5
06:05 1016 30 845 24.95 11.3 52.3 19 -11.3 11.6
06:10 1016 30 845 24.95 10.8 51.4 19 -11.9 10.6
06:15 1016 30 845 24.95 10.9 51.6 19 -11.7 10.9
06:20 1016 30 845 24.95 10.9 51.6 19 -12 10.4
06:25 1016 30 845 24.95 10.8 51.4 19 -11.7 10.9
06:30 1016 30 845 24.95 11 51.8 18 -12.2 10
06:35 1016 30 845 24.95 10.9 51.7 21 -10.8 12.6
06:40 1016 30 845 24.95 10.4 50.7 21 -11.1 12.1
06:45 1016 30 845 24.95 10.1 50.1 21 -11.3 11.6
06:50 1016 30 845 24.95 9.8 49.7 22 -10.9 12.3
06:55 1016 30 846 24.98 9.6 49.2 20 -12 10.3
07:00 1016 30 845 24.95 10.1 50.1 20 -12 10.4
07:05 1016 30 846 24.98 10.6 51.1 20 -11.6 11.1
07:10 1016 30 845 24.95 10.4 50.8 21 -10.9 12.3
07:15 1016 30 846 24.98 10 50 22 -10.8 12.5
07:20 1016 30 845 24.95 10.1 50.1 22 -10.6 13
07:25 1016 30 846 24.98 10.1 50.2 22 -10.4 13.2
07:30 1016 30 845 24.95 10.1 50.2 23 -9.9 14.1
07:35 1016 30 845 24.95 10.1 50.1 24 -9.8 14.3
07:40 1016 30 845 24.95 9.9 49.9 24 -9.8 14.3
07:45 1016 30 845 24.95 10 49.9 24 -9.7 14.5
07:50 1016 30 845 24.95 9.8 49.7 25 -9.5 14.9
07:55 1016 30 845 24.95 9.7 49.4 25 -9.3 15.2
08:00 1016 30 845 24.95 9.6 49.3 25 -9.3 15.3
08:05 1016 30 845 24.95 9.6 49.3 26 -9 15.9
08:10 1016 30 845 24.95 9.6 49.2 27 -8.7 16.4
08:15 1016 30 845 24.95 9.6 49.2 28 -8.3 17.1
08:20 1016 30 845 24.95 9.5 49.1 28 -8 17.6
08:25 1016 30 845 24.95 9.4 48.9 29 -7.9 17.7
08:30 1016 30 845 24.95 9.3 48.8 30 -7.5 18.4
08:35 1016 30 845 24.95 9.2 48.5 31 -6.9 19.6
08:40 1016 30 845 24.95 9 48.2 32 -6.7 19.9
08:45 1016 30 845 24.95 9.2 48.6 32 -6.7 19.9
08:50 1016 30 845 24.95 9.5 49.2 31 -6.8 19.8
08:55 1016 30 845 24.95 9.5 49.1 33 -6 21.3
09:00 1016 30 845 24.95 9 48.2 35 -5.6 22
09:05 1016 30 845 24.95 8.9 48 34 -6 21.2
09:10 1016 30 845 24.95 9.2 48.6 35 -5.6 21.9
09:15 1016 30 845 24.95 9 48.2 36 -5.4 22.3
09:20 1016 30 845 24.95 8.9 48 35 -5.6 21.9
09:25 1016 30 845 24.95 9.3 48.7 33 -6.3 20.6
09:30 1016 30 845 24.95 9.8 49.6 32 -6.1 21.1
09:35 1016 30 845 24.95 10.4 50.8 32 -5.6 22
09:40 1016 30 845 24.95 10.2 50.3 33 -5.2 22.6
09:45 1016 30 845 24.95 9.9 49.8 33 -5.4 22.2
09:50 1016 30 845 24.95 10.1 50.1 34 -4.9 23.1
09:55 1016 30 845 24.95 9.8 49.6 35 -4.8 23.3
10:00 1016 30 845 24.95 9.8 49.6 35 -4.9 23.2
10:05 1016 30 845 24.95 9.8 49.6 36 -4.5 23.8
10:10 1016 30 846 24.98 9.7 49.5 36 -4.6 23.7
10:15 1016 30 846 24.98 9.8 49.7 34 -5.3 22.4
10:20 1016 30 846 24.98 10.4 50.7 32 -5.6 22
10:25 1016 30 846 24.98 10.8 51.4 32 -5.3 22.5
10:30 1016 30 846 24.98 11 51.7 31 -5.3 22.5
10:35 1017 30.03 846 24.98 11 51.8 32 -5.1 22.9
10:40 1016 30 846 24.98 11 51.8 32 -4.9 23.1
10:45 1016 30 846 24.98 11 51.8 33 -4.8 23.3
10:50 1016 30 846 24.98 10.8 51.5 33 -4.8 23.4
10:55 1016 30 846 24.98 11 51.9 32 -5.1 22.8
11:00 1016 30 846 24.98 11.5 52.8 32 -4.7 23.5
11:05 1017 30.03 846 24.98 11.6 52.8 32 -4.4 24
11:10 1017 30.03 846 24.98 11.5 52.7 33 -4.4 24.1
11:15 1017 30.03 846 24.98 11.5 52.7 32 -4.4 24.1
11:20 1017 30.03 846 24.98 11.6 52.9 33 -4.1 24.7
11:25 1017 30.03 846 24.98 11.8 53.2 33 -4.1 24.7
11:30 1017 30.03 846 24.98 12 53.6 32 -4 24.8
11:35 1017 30.03 846 24.98 12 53.6 32 -4 24.9
11:40 1017 30.03 846 24.98 12.1 53.7 31 -4.3 24.2
11:45 1017 30.03 846 24.98 12.3 54.2 31 -4.3 24.3
11:50 1017 30.03 846 24.98 12.2 53.9 32 -3.9 24.9
11:55 1017 30.03 846 24.98 12 53.5 32 -4 24.9
12:00 1017 30.03 846 24.98 11.9 53.4 33 -3.7 25.3
12:05 1017 30.03 846 24.98 11.8 53.2 34 -3.7 25.4
12:10 1017 30.03 846 24.98 11.7 53.1 34 -3.6 25.6
12:15 1017 30.03 846 24.98 11.5 52.6 35 -3.5 25.8
12:20 1017 30.03 846 24.98 11.3 52.3 36 -3.3 26
12:25 1017 30.03 846 24.98 10.9 51.6 37 -3 26.5
12:30 1017 30.03 846 24.98 10.5 50.9 38 -3.3 26
12:35 1017 30.03 846 24.98 10.6 51.1 36 -3.6 25.4
12:40 1017 30.03 846 24.98 10.7 51.3 37 -3.5 25.8
12:45 1017 30.03 846 24.98 10.5 50.9 36 -3.7 25.3
12:50 1017 30.03 846 24.98 10.8 51.4 37 -3.3 26.1
12:55 1017 30.03 846 24.98 10.4 50.6 38 -3.3 26.1
13:00 1017 30.03 846 24.98 10.5 50.8 36 -3.8 25.1
13:05 1017 30.03 846 24.98 10.8 51.4 36 -3.7 25.4
13:10 1017 30.03 846 24.98 10.8 51.5 37 -3.3 26.1
13:15 1017 30.03 846 24.98 10.8 51.5 37 -3.4 25.9
13:20 1017 30.03 846 24.98 11.1 51.9 35 -3.6 25.5
13:25 1017 30.03 846 24.98 11.3 52.3 37 -2.7 27.1
13:30 1017 30.03 846 24.98 11.3 52.3 37 -3 26.7
13:35 1017 30.03 846 24.98 11.4 52.4 37 -2.6 27.3
13:40 1017 30.03 846 24.98 11.3 52.3 38 -2.4 27.6
13:45 1017 30.03 846 24.98 11 51.7 39 -2.3 27.9
13:50 1017 30.03 846 24.98 10.9 51.5 40 -2.1 28.2
13:55 1017 30.03 846 24.98 10.7 51.3 40 -2.3 27.9
14:00 1017 30.03 846 24.98 10.8 51.5 41 -1.9 28.7
14:05 1017 30.03 846 24.98 10.5 50.8 42 -2 28.4
14:10 1017 30.03 846 24.98 10.7 51.3 41 -1.9 28.6
14:15 1017 30.03 846 24.98 10.8 51.4 42 -1.6 29.1
14:20 1017 30.03 846 24.98 10.8 51.4 42 -1.6 29.1
14:25 1017 30.03 846 24.98 10.7 51.3 43 -1.2 29.8
14:30 1017 30.03 846 24.98 10.5 50.9 44 -1.2 29.9
14:35 1017 30.03 846 24.98 10.6 51 45 -0.9 30.4
14:40 1017 30.03 846 24.98 10.6 51 45 -0.8 30.5
14:45 1017 30.03 846 24.98 10.8 51.5 44 -0.9 30.4
14:50 1017 30.03 846 24.98 10.7 51.2 46 -0.5 31.1
14:55 1017 30.03 846 24.98 10.4 50.7 47 -0.5 31.2
15:00 1017 30.03 846 24.98 10.2 50.3 47 -0.5 31.1
15:05 1017 30.03 846 24.98 10 50 49 -0.3 31.5
15:10 1017 30.03 846 24.98 9.8 49.7 49 -0.5 31.1
15:15 1017 30.03 846 24.98 9.9 49.9 48 -0.4 31.3
15:20 1017 30.03 846 24.98 10.1 50.2 48 -0.4 31.3
15:25 1017 30.03 846 24.98 10.2 50.4 48 -0.3 31.5
15:30 1017 30.03 846 24.98 10.4 50.8 47 -0.4 31.3
15:35 1017 30.03 846 24.98 10.7 51.3 46 -0.4 31.2
15:40 1017 30.03 846 24.98 11.1 51.9 45 -0.3 31.4
15:45 1017 30.03 846 24.98 11.3 52.4 44 -0.3 31.4
15:50 1017 30.03 846 24.98 11.9 53.4 43 -0.2 31.6
15:55 1017 30.03 846 24.98 11.9 53.4 42 -0.7 30.8
16:00 1016 30 846 24.98 12.9 55.2 38 -1.1 30
16:05 1016 30 846 24.98 13 55.5 42 0.6 33.1
16:10 1016 30 845 24.95 12.8 55.1 40 -0.5 31
16:15 1016 30 845 24.95 11.9 53.4 42 -0.6 30.8
16:20 1016 30 845 24.95 11.7 53.1 42 -0.7 30.7
16:25 1016 30 845 24.95 12.4 54.3 41 -0.5 31
16:30 1016 30 845 24.95 12 53.7 41 -0.6 30.8
16:35 1016 30 845 24.95 11.9 53.4 41 -0.8 30.6
16:40 1016 30 845 24.95 11.9 53.4 41 -1 30.3
16:45 1016 30 845 24.95 11.9 53.5 42 -0.6 30.9
16:50 1016 30 845 24.95 11.5 52.6 43 -0.5 31.1
16:55 1016 30 845 24.95 10.7 51.3 46 -0.5 31.1
17:00 1016 30 846 24.98 10.7 51.2 45 -0.7 30.7
17:05 1016 30 846 24.98 10.6 51.1 46 -0.6 31
17:10 1016 30 846 24.98 10 50 49 -0.3 31.5
17:15 1016 30 846 24.98 9.5 49.1 51 -0.2 31.6
17:20 1016 30 846 24.98 9.2 48.5 49 -0.9 30.4
17:25 1016 30 846 24.98 9.5 49.1 49 -0.6 31
17:30 1016 30 846 24.98 9.6 49.2 48 -1 30.2
17:35 1016 30 846 24.98 10.2 50.4 45 -1.1 30
17:40 1016 30 846 24.98 10.5 50.9 45 -1 30.2
17:45 1016 30 846 24.98 11 51.7 43 -1.1 30.1
17:50 1016 30 846 24.98 11 51.8 43 -0.9 30.4
17:55 1016 30 846 24.98 11.1 51.9 45 -0.3 31.5
18:00 1017 30.03 846 24.98 10.3 50.6 45 -1 30.2
18:05 1017 30.03 846 24.98 10.1 50.2 47 -0.6 30.8
18:10 1017 30.03 846 24.98 9.8 49.6 47 -0.9 30.3
18:15 1017 30.03 846 24.98 9.8 49.6 47 -1 30.2
18:20 1017 30.03 846 24.98 9.8 49.6 47 -1.1 30
18:25 1017 30.03 846 24.98 10 50.1 46 -1 30.2
18:30 1017 30.03 846 24.98 9.8 49.7 47 -0.9 30.4
18:35 1017 30.03 846 24.98 9.7 49.4 46 -1.4 29.5
18:40 1017 30.03 846 24.98 9.8 49.7 46 -1.2 29.8
18:45 1017 30.03 846 24.98 9.9 49.9 45 -1.3 29.7
18:50 1017 30.03 846 24.98 10 50 46 -1.1 29.9
18:55 1017 30.03 846 24.98 10.1 50.3 45 -1.2 29.8
19:00 1017 30.03 846 24.98 9.9 49.9 46 -1.1 30.1
19:05 1017 30.03 846 24.98 9.8 49.6 46 -1.3 29.6
19:10 1016 30 846 24.98 9.7 49.4 47 -1.1 30.1
19:15 1016 30 846 24.98 9.7 49.5 45 -1.6 29.1
19:20 1017 30.03 846 24.98 10.1 50.1 45 -1.4 29.5
19:25 1017 30.03 846 24.98 10.2 50.4 44 -1.3 29.6
19:30 1016 30 846 24.98 10.1 50.1 45 -1.2 29.8
19:35 1016 30 846 24.98 9.8 49.6 46 -1.2 29.9
19:40 1017 30.03 846 24.98 9.1 48.4 48 -1.3 29.7
19:45 1017 30.03 846 24.98 9 48.2 49 -1.2 29.8
19:50 1017 30.03 846 24.98 8.7 47.7 50 -1.2 29.9
19:55 1017 30.03 846 24.98 8.6 47.5 49 -1.5 29.3
20:00 1017 30.03 846 24.98 8.6 47.6 49 -1.5 29.3
20:05 1017 30.03 846 24.98 9.2 48.5 47 -1.4 29.5
20:10 1017 30.03 846 24.98 9.1 48.4 47 -1.5 29.4
20:15 1017 30.03 846 24.98 9.2 48.5 48 -1.3 29.7
20:20 1017 30.03 846 24.98 9.2 48.6 46 -1.7 29
20:25 1017 30.03 846 24.98 9.5 49.1 46 -1.4 29.5
20:30 1017 30.03 846 24.98 9.4 48.9 47 -1.4 29.5
20:35 1017 30.03 846 24.98 9.3 48.8 47 -1.3 29.7
20:40 1017 30.03 846 24.98 9.2 48.5 48 -1.3 29.7
20:45 1017 30.03 846 24.98 9.1 48.4 48 -1.4 29.4
20:50 1017 30.03 846 24.98 9 48.1 47 -1.7 29
20:55 1017 30.03 846 24.98 9.2 48.5 47 -1.6 29.1
21:00 1017 30.03 846 24.98 9.3 48.7 47 -1.4 29.5
21:05 1017 30.03 846 24.98 9.3 48.7 47 -1.5 29.4
21:10 1017 30.03 846 24.98 9.3 48.7 48 -1.2 29.9
21:15 1017 30.03 846 24.98 8.9 48.1 48 -1.5 29.4
21:20 1016 30 846 24.98 8.8 47.9 49 -1.4 29.6
21:25 1016 30 846 24.98 8.6 47.4 50 -1.2 29.9
21:30 1016 30 846 24.98 8.1 46.5 52 -1.2 29.8
21:35 1016 30 845 24.95 8.3 47 50 -1.4 29.5
21:40 1016 30 846 24.98 8.4 47.2 51 -1.1 29.9
21:45 1016 30 845 24.95 8.5 47.3 51 -1 30.2
21:50 1016 30 845 24.95 8.4 47.2 49 -1.7 29
21:55 1016 30 845 24.95 9 48.3 49 -1.1 30.1
22:00 1016 30 845 24.95 8.7 47.6 52 -0.7 30.8
22:05 1016 30 845 24.95 8 46.4 53 -0.8 30.5
22:10 1016 30 845 24.95 7.7 45.8 54 -0.9 30.4
22:15 1016 30 845 24.95 7.7 45.9 54 -1.1 30
22:20 1016 30 845 24.95 7.8 46 54 -0.9 30.3
22:25 1016 30 845 24.95 8 46.4 53 -1 30.2
22:30 1016 30 845 24.95 7.8 46 54 -0.8 30.5
22:35 1016 30 845 24.95 7.8 46 53 -1.1 29.9
22:40 1016 30 845 24.95 7.9 46.3 54 -0.8 30.6
22:45 1016 30 845 24.95 7.9 46.1 55 -0.7 30.8
22:50 1016 30 845 24.95 7.5 45.5 56 -0.8 30.6
22:55 1016 30 845 24.95 7.3 45.1 56 -1 30.2
23:00 1016 30 845 24.95 7.6 45.6 55 -0.8 30.6
23:05 1016 30 845 24.95 7.4 45.3 55 -1 30.2
23:10 1016 30 845 24.95 7.4 45.2 57 -0.6 30.9
23:15 1016 30 845 24.95 7.6 45.8 53 -1.3 29.6
23:20 1016 30 845 24.95 8.2 46.8 53 -0.9 30.4
23:25 1016 30 845 24.95 8 46.4 53 -1 30.2
23:30 1016 30 845 24.95 8.1 46.6 53 -1 30.2
23:35 1016 30 845 24.95 8.4 47.1 52 -0.9 30.4
23:40 1016 30 845 24.95 8.3 47 52 -0.9 30.4
23:45 1016 30 845 24.95 8.2 46.8 54 -0.6 30.9
23:50 1015 29.97 845 24.95 8.1 46.5 53 -0.8 30.6
23:55 1015 29.97 845 24.95 8.3 47 53 -0.7 30.7
24:00 1015 29.97 844 24.92 8.3 46.9 53 -0.7 30.7